createdAt,value
2019-02-22T00:02:56.570Z,99.80
2019-02-22T00:07:58.776Z,99.50
2019-02-22T00:13:00.785Z,109.73
2019-02-22T00:18:02.942Z,101.40
2019-02-22T00:23:07.953Z,112.23
2019-02-22T00:28:10.331Z,103.77
2019-02-22T00:33:12.367Z,114.37
2019-02-22T00:38:15.291Z,107.77
2019-02-22T00:43:18.534Z,124.87
2019-02-22T00:48:23.487Z,118.90
2019-02-22T00:53:25.832Z,107.83
2019-02-22T00:58:29.816Z,108.37
2019-02-22T01:03:33.804Z,113.40
2019-02-22T01:08:38.100Z,125.70
2019-02-22T01:13:42.094Z,134.40
2019-02-22T01:18:44.549Z,142.07
2019-02-22T01:23:46.892Z,143.87
2019-02-22T01:28:48.885Z,127.60
2019-02-22T01:33:50.936Z,120.47
2019-02-22T01:38:55.696Z,112.30
2019-02-22T01:44:00.809Z,114.53
2019-02-22T01:49:02.882Z,118.60
2019-02-22T01:54:04.925Z,125.43
2019-02-22T01:59:07.287Z,104.53
2019-02-22T02:04:09.568Z,115.07
2019-02-22T02:09:11.624Z,124.30
2019-02-22T02:14:13.835Z,130.90
2019-02-22T02:19:16.200Z,136.93
2019-02-22T02:24:19.542Z,128.30
2019-02-22T02:29:21.657Z,114.87
2019-02-22T02:34:23.769Z,120.07
2019-02-22T02:39:25.819Z,128.90
2019-02-22T02:44:27.906Z,128.23
2019-02-22T02:49:29.923Z,124.20
2019-02-22T02:54:31.948Z,125.73
2019-02-22T02:59:34.010Z,112.60
2019-02-22T03:04:36.027Z,114.57
2019-02-22T03:09:38.075Z,118.27
2019-02-22T03:14:40.135Z,119.87
2019-02-22T03:19:42.231Z,120.17
2019-02-22T03:24:44.263Z,111.90
2019-02-22T03:29:46.350Z,118.27
2019-02-22T03:34:49.525Z,120.43
2019-02-22T03:39:51.865Z,107.57
2019-02-22T03:44:53.876Z,116.47
2019-02-22T03:49:57.303Z,122.13
2019-02-22T03:55:00.439Z,109.43
2019-02-22T04:00:07.215Z,119.13
2019-02-22T04:05:10.452Z,121.80
2019-02-22T04:10:13.162Z,120.10
2019-02-22T04:15:17.143Z,110.77
2019-02-22T04:20:19.233Z,104.87
2019-02-22T04:25:21.260Z,111.23
2019-02-22T04:30:23.501Z,110.83
2019-02-22T04:35:27.778Z,116.53
2019-02-22T04:40:29.929Z,111.67
2019-02-22T04:45:31.998Z,129.57
2019-02-22T04:50:34.018Z,104.97
2019-02-22T04:55:36.028Z,120.57
2019-02-22T05:00:39.704Z,115.97
2019-02-22T05:05:42.940Z,122.97
2019-02-22T05:10:44.997Z,119.43
2019-02-22T05:15:47.023Z,111.17
2019-02-22T05:20:49.274Z,121.27
2019-02-22T05:25:51.330Z,117.23
2019-02-22T05:30:53.697Z,133.53
2019-02-22T05:35:56.078Z,115.03
2019-02-22T05:40:58.359Z,119.00
2019-02-22T05:46:00.403Z,113.20
2019-02-22T05:51:04.881Z,122.90
2019-02-22T05:56:07.064Z,130.43
2019-02-22T06:01:09.128Z,152.07
2019-02-22T06:06:15.840Z,135.90
2019-02-22T06:11:18.188Z,127.77
2019-02-22T06:16:20.225Z,115.10
2019-02-22T06:21:22.857Z,126.90
2019-02-22T06:26:25.342Z,127.80
2019-02-22T06:31:27.459Z,130.47
2019-02-22T06:36:32.102Z,129.47
2019-02-22T06:41:36.022Z,132.30
2019-02-22T06:46:39.260Z,119.10
2019-02-22T06:51:41.515Z,137.10
2019-02-22T06:56:43.573Z,122.73
2019-02-22T07:01:49.890Z,140.67
2019-02-22T07:06:52.759Z,124.57
2019-02-22T07:12:08.028Z,128.60
2019-02-22T07:17:10.038Z,123.93
2019-02-22T07:22:12.621Z,123.77
2019-02-22T07:27:14.746Z,127.03
2019-02-22T07:32:18.040Z,117.70
2019-02-22T07:37:20.069Z,126.80
2019-02-22T07:42:22.189Z,133.50
2019-02-22T07:47:24.207Z,123.60
2019-02-22T07:52:26.774Z,129.13
2019-02-22T07:57:30.686Z,115.50
2019-02-22T08:02:33.578Z,113.13
2019-02-22T08:07:35.775Z,105.07
2019-02-22T08:12:37.868Z,108.17
2019-02-22T08:17:40.798Z,114.20
2019-02-22T08:22:42.990Z,112.70
2019-02-22T08:27:53.923Z,104.43
2019-02-22T08:32:54.397Z,110.53
2019-02-22T08:37:56.475Z,110.47
2019-02-22T08:42:58.594Z,110.43
2019-02-22T08:48:00.641Z,100.33
2019-02-22T08:53:03.063Z,108.57
2019-02-22T08:58:07.447Z,114.97
2019-02-22T09:03:10.839Z,102.80
2019-02-22T09:08:12.908Z,107.77
2019-02-22T09:13:14.918Z,110.10
2019-02-22T09:18:16.965Z,96.27
2019-02-22T09:23:19.021Z,94.20
2019-02-22T09:28:21.050Z,94.27
2019-02-22T09:33:25.127Z,112.15
2019-02-22T09:38:29.005Z,107.83
2019-02-22T09:43:31.301Z,105.20
2019-02-22T09:48:34.902Z,102.55
2019-02-22T09:53:37.169Z,95.63
2019-02-22T09:58:39.184Z,95.17
2019-02-22T10:03:41.341Z,100.80
2019-02-22T10:08:43.429Z,92.90
2019-02-22T10:13:45.585Z,87.90
2019-02-22T10:18:49.755Z,89.67
2019-02-22T10:23:51.778Z,91.23
2019-02-22T10:28:54.273Z,87.00
2019-02-22T10:33:56.842Z,83.23
2019-02-22T10:38:59.162Z,84.60
2019-02-22T10:44:01.462Z,73.90
2019-02-22T10:49:03.795Z,84.10
2019-02-22T10:54:09.492Z,79.73
2019-02-22T10:59:11.528Z,84.97
2019-02-22T11:04:13.552Z,80.03
2019-02-22T11:09:16.340Z,80.47
2019-02-22T11:14:28.455Z,79.93
2019-02-22T11:19:22.614Z,74.80
2019-02-22T11:24:26.912Z,71.53
2019-02-22T11:29:28.988Z,80.00
2019-02-22T11:34:31.114Z,73.90
2019-02-22T11:39:33.131Z,71.03
2019-02-22T11:44:43.030Z,68.90
2019-02-22T11:49:48.039Z,75.80
2019-02-22T11:54:53.541Z,71.13
2019-02-22T11:59:55.833Z,74.17
2019-02-22T12:05:06.871Z,73.10
2019-02-22T12:10:08.953Z,65.43
2019-02-22T12:15:18.764Z,67.17
2019-02-22T12:20:20.935Z,52.87
2019-02-22T12:25:22.971Z,55.60
2019-02-22T12:30:28.057Z,54.70
2019-02-22T12:35:32.412Z,61.40
2019-02-22T12:40:34.418Z,62.37
2019-02-22T12:45:36.433Z,67.30
2019-02-22T12:50:40.330Z,67.57
2019-02-22T12:55:42.411Z,68.53
2019-02-22T13:00:46.296Z,68.03
2019-02-22T13:05:48.318Z,67.63
2019-02-22T13:10:50.511Z,56.70
2019-02-22T13:15:54.947Z,43.03
2019-02-22T13:20:58.270Z,36.37
2019-02-22T13:26:00.271Z,23.43
2019-02-22T13:31:02.508Z,18.80
2019-02-22T13:36:06.533Z,22.33
2019-02-22T13:41:08.668Z,22.47
2019-02-22T13:46:10.743Z,26.70
2019-02-22T13:51:12.835Z,26.20
2019-02-22T13:56:15.140Z,27.10
2019-02-22T14:01:20.150Z,32.63
2019-02-22T14:06:22.158Z,29.63
2019-02-22T14:11:24.431Z,35.93
2019-02-22T14:16:26.487Z,35.47
2019-02-22T14:21:28.882Z,36.90
2019-02-22T14:26:33.640Z,39.15
2019-02-22T14:31:37.312Z,36.67
2019-02-22T14:36:39.492Z,35.88
2019-02-22T14:41:41.516Z,39.00
2019-02-22T14:46:48.064Z,42.13
2019-02-22T14:51:51.974Z,67.53
2019-02-22T14:56:54.002Z,72.65
2019-02-22T15:02:00.801Z,72.07
2019-02-22T15:07:04.942Z,65.22
2019-02-22T15:12:08.934Z,70.73
2019-02-22T15:17:29.186Z,65.40
2019-02-22T15:22:31.298Z,64.80
2019-02-22T15:27:33.306Z,66.00
2019-02-22T15:32:41.206Z,64.70
2019-02-22T15:37:43.625Z,55.63
2019-02-22T15:42:48.461Z,45.57
2019-02-22T15:47:52.047Z,41.13
2019-02-22T15:52:56.465Z,34.57
2019-02-22T15:57:58.613Z,33.67
2019-02-22T16:03:01.800Z,31.17
2019-02-22T16:08:04.035Z,32.43
2019-02-22T16:13:06.361Z,34.37
2019-02-22T16:18:10.662Z,32.00
2019-02-22T16:23:14.070Z,34.27
2019-02-22T16:28:16.261Z,34.33
2019-02-22T16:33:23.821Z,30.83
2019-02-22T16:38:25.867Z,30.83
2019-02-22T16:43:28.890Z,31.03
2019-02-22T16:48:34.918Z,32.70
2019-02-22T16:53:37.244Z,33.70
2019-02-22T16:58:40.759Z,32.50
2019-02-22T17:03:48.071Z,30.57
2019-02-22T17:08:50.059Z,29.57
2019-02-22T17:13:53.526Z,30.07
2019-02-22T17:18:56.894Z,30.33
2019-02-22T17:23:59.294Z,33.13
2019-02-22T17:29:05.389Z,32.93
2019-02-22T17:34:08.860Z,31.10
2019-02-22T17:39:13.533Z,29.97
2019-02-22T17:44:15.810Z,34.73
2019-02-22T17:49:36.857Z,33.07
2019-02-22T17:54:42.189Z,29.82
2019-02-22T17:59:44.250Z,30.17
2019-02-22T18:04:46.922Z,29.50
2019-02-22T18:09:49.006Z,31.93
2019-02-22T18:14:51.696Z,34.03
2019-02-22T18:19:56.823Z,30.95
2019-02-22T18:24:58.844Z,31.10
2019-02-22T18:30:01.013Z,30.03
2019-02-22T18:35:06.645Z,32.47
2019-02-22T18:40:12.830Z,32.17
2019-02-22T18:45:19.504Z,32.47
2019-02-22T18:50:25.190Z,32.83
2019-02-22T18:55:27.267Z,31.37
2019-02-22T19:00:29.538Z,36.20
2019-02-22T19:05:37.638Z,39.47
2019-02-22T19:10:39.679Z,35.40
2019-02-22T19:15:42.350Z,38.80
2019-02-22T19:20:44.375Z,36.87
2019-02-22T19:25:46.467Z,41.20
2019-02-22T19:30:48.719Z,43.43
2019-02-22T19:35:50.996Z,43.43
2019-02-22T19:40:53.018Z,43.10
2019-02-22T19:46:01.163Z,44.53
2019-02-22T19:51:05.193Z,47.43
2019-02-22T19:56:09.144Z,41.57
2019-02-22T20:01:11.743Z,47.87
2019-02-22T20:06:14.028Z,45.20
2019-02-22T20:11:16.100Z,46.70
2019-02-22T20:16:20.917Z,46.30
2019-02-22T20:21:23.244Z,56.00
2019-02-22T20:26:25.275Z,48.97
2019-02-22T20:31:29.959Z,45.33
2019-02-22T20:36:32.022Z,51.93
2019-02-22T20:41:34.062Z,55.80
2019-02-22T20:46:36.548Z,50.87
2019-02-22T20:51:38.633Z,54.20
2019-02-22T20:56:43.134Z,53.90
2019-02-22T21:01:47.101Z,52.53
2019-02-22T21:06:51.769Z,61.07
2019-02-22T21:11:58.440Z,66.50
2019-02-22T21:17:02.572Z,72.47
2019-02-22T21:22:09.966Z,80.57
2019-02-22T21:27:12.158Z,83.57
2019-02-22T21:32:14.330Z,83.60
2019-02-22T21:37:16.986Z,84.43
2019-02-22T21:42:20.356Z,92.27
2019-02-22T21:47:22.617Z,95.07
2019-02-22T21:52:25.380Z,100.23
2019-02-22T21:57:28.095Z,95.90
2019-02-22T22:02:32.511Z,100.00
2019-02-22T22:07:37.272Z,104.13
2019-02-22T22:12:43.326Z,104.00
2019-02-22T22:17:46.429Z,101.53
2019-02-22T22:22:48.663Z,111.27
2019-02-22T22:27:50.746Z,115.23
2019-02-22T22:32:52.896Z,120.93
2019-02-22T22:37:55.041Z,134.77
2019-02-22T22:42:57.116Z,122.90
2019-02-22T22:47:59.113Z,122.47
2019-02-22T22:53:01.415Z,122.40
2019-02-22T22:58:05.889Z,137.13
2019-02-22T23:03:08.161Z,133.63
2019-02-22T23:08:11.516Z,134.90
2019-02-22T23:13:23.644Z,140.50
2019-02-22T23:18:27.560Z,131.20
2019-02-22T23:23:30.516Z,129.40
2019-02-22T23:28:32.568Z,128.73
2019-02-22T23:33:39.920Z,125.03
2019-02-22T23:38:43.840Z,130.40
2019-02-22T23:43:46.140Z,142.07
2019-02-22T23:48:50.811Z,131.73
2019-02-22T23:53:56.573Z,131.60
2019-02-22T23:59:00.158Z,137.60
